TAF KABR
AMD KABR 080123Z 0801/0824 15005KT P6SM BKN029 FM080600 19005KT P6SM SCT200 FM081600 16011KT P6SM BKN150 FM082000 16012G18KT P6SM SCT200=
METAR KABR
WC KABR
WS KABR
WV KABR